Time;durP1;ratioP1;P1;durP2;ratioP2;P2;SDS_P1;SDS_P2;PMS_P1;PMS_P2;Temp;Humidity;BMP_temperature;BMP_pressure;BME280_temperature;BME280_humidity;BME280_pressure;Samples;Min_cycle;Max_cycle;Signal;HPM_P1;HPM_P2
2023/07/10 00:01:22;;;;;;;21.25;12.85;;;19.40;99.90;;;;;;5052370;28;20045;-68
2023/07/10 00:03:48;;;;;;;20.33;12.75;;;19.50;99.90;;;;;;5052754;28;20044;-68
2023/07/10 00:06:14;;;;;;;22.15;12.00;;;19.50;99.90;;;;;;5052835;28;20060;-68
2023/07/10 00:08:40;;;;;;;21.52;13.32;;;19.50;99.90;;;;;;5052541;28;20450;-68
2023/07/10 00:11:24;;;;;;;18.75;12.70;;;19.50;99.90;;;;;;5052358;28;20044;-68
2023/07/10 00:13:49;;;;;;;18.02;11.25;;;19.50;99.90;;;;;;5052685;28;20045;-68
2023/07/10 00:16:19;;;;;;;21.38;13.50;;;19.40;99.90;;;;;;5052510;28;20039;-68
2023/07/10 00:18:45;;;;;;;20.13;12.18;;;19.50;99.90;;;;;;5052470;28;20056;-68
2023/07/10 00:21:11;;;;;;;16.45;11.43;;;19.30;99.90;;;;;;5052209;28;20041;-68
2023/07/10 00:23:37;;;;;;;21.52;11.93;;;19.30;99.90;;;;;;5052578;28;20036;-68
2023/07/10 00:26:18;;;;;;;20.73;14.00;;;19.50;99.90;;;;;;5052561;28;20037;-68
2023/07/10 00:28:44;;;;;;;19.50;12.75;;;19.40;99.90;;;;;;5052049;28;20171;-68
2023/07/10 00:31:13;;;;;;;21.15;13.80;;;19.30;99.90;;;;;;5052074;28;20499;-68
2023/07/10 00:33:38;;;;;;;22.88;13.52;;;19.20;99.90;;;;;;5052322;28;20045;-68
2023/07/10 00:36:29;;;;;;;21.88;12.70;;;19.30;99.90;;;;;;5051052;28;20048;-68
2023/07/10 00:38:55;;;;;;;21.33;13.30;;;19.40;99.90;;;;;;5050601;28;20446;-68
2023/07/10 00:41:23;;;;;;;24.77;14.60;;;19.40;99.90;;;;;;5051887;28;20060;-68
2023/07/10 00:43:55;;;;;;;25.90;14.73;;;19.40;99.90;;;;;;5052363;28;20041;-68
2023/07/10 00:46:35;;;;;;;23.63;15.10;;;19.30;99.90;;;;;;5051666;28;20037;-68
2023/07/10 00:49:40;;;;;;;22.38;14.48;;;19.40;99.90;;;;;;5051762;28;20654;-68
2023/07/10 00:52:19;;;;;;;25.42;15.27;;;19.50;99.90;;;;;;5047617;28;20056;-68
2023/07/10 00:54:48;;;;;;;26.60;16.05;;;19.20;99.90;;;;;;5051903;28;20044;-68
2023/07/10 00:57:18;;;;;;;33.42;17.70;;;19.40;99.90;;;;;;5051592;28;20072;-68
2023/07/10 00:59:44;;;;;;;29.42;16.33;;;19.40;99.90;;;;;;5051898;28;20041;-67
2023/07/10 01:02:13;;;;;;;29.92;18.15;;;19.40;99.90;;;;;;5051284;28;20040;-67
2023/07/10 01:04:41;;;;;;;23.40;18.80;;;19.30;99.90;;;;;;5052012;28;20178;-68
2023/07/10 01:07:09;;;;;;;29.08;19.80;;;19.30;99.90;;;;;;5051842;28;20037;-68
2023/07/10 01:09:35;;;;;;;20.63;18.17;;;19.40;99.90;;;;;;5051836;28;20051;-68
2023/07/10 01:12:03;;;;;;;31.92;19.25;;;19.30;99.90;;;;;;5051200;28;20407;-68
2023/07/10 01:14:34;;;;;;;30.20;19.73;;;19.30;99.90;;;;;;5050294;28;20424;-68
2023/07/10 01:17:01;;;;;;;27.55;19.65;;;19.40;99.90;;;;;;5051623;28;20548;-68
2023/07/10 01:19:27;;;;;;;26.67;18.75;;;19.40;99.90;;;;;;5051422;28;20076;-68
2023/07/10 01:21:53;;;;;;;28.77;19.73;;;19.30;99.90;;;;;;5051201;28;20033;-69
2023/07/10 01:24:19;;;;;;;37.10;19.92;;;19.40;99.90;;;;;;5051547;28;20041;-68
2023/07/10 01:26:44;;;;;;;27.17;20.85;;;19.30;99.90;;;;;;5051575;28;20041;-68
2023/07/10 01:29:23;;;;;;;30.73;19.70;;;19.20;99.90;;;;;;5050878;28;20037;-68
2023/07/10 01:31:54;;;;;;;35.88;21.52;;;19.30;99.90;;;;;;5051197;28;20072;-68
2023/07/10 01:34:24;;;;;;;38.15;23.48;;;19.10;99.90;;;;;;5051480;28;20048;-68
2023/07/10 01:36:50;;;;;;;35.58;23.55;;;19.20;99.90;;;;;;5051548;28;20037;-68
2023/07/10 01:39:26;;;;;;;40.30;24.45;;;19.20;99.90;;;;;;5051102;28;20063;-68
2023/07/10 01:41:52;;;;;;;41.03;24.27;;;19.20;99.90;;;;;;5050917;28;20201;-68
2023/07/10 01:44:29;;;;;;;35.97;24.80;;;19.10;99.90;;;;;;5051299;28;20080;-68
2023/07/10 01:46:56;;;;;;;43.40;24.95;;;19.20;99.90;;;;;;5051381;28;20159;-68
2023/07/10 01:49:27;;;;;;;43.35;26.73;;;19.10;99.90;;;;;;5050941;28;20566;-68
2023/07/10 01:51:54;;;;;;;42.42;24.98;;;19.20;99.90;;;;;;5050603;28;20473;-68
2023/07/10 01:54:20;;;;;;;41.17;23.65;;;19.20;99.90;;;;;;5051078;28;20504;-68
2023/07/10 01:56:47;;;;;;;42.92;23.15;;;19.20;99.90;;;;;;5051429;28;20170;-67
2023/07/10 01:59:13;;;;;;;38.67;23.20;;;19.00;99.90;;;;;;5054015;28;20079;-67
2023/07/10 02:01:38;;;;;;;39.53;22.73;;;19.10;99.90;;;;;;5054788;28;20083;-67
2023/07/10 02:04:04;;;;;;;35.45;22.90;;;19.10;99.90;;;;;;5055207;28;20124;-67
2023/07/10 02:06:31;;;;;;;39.13;23.48;;;19.20;99.90;;;;;;5055104;28;20178;-67
2023/07/10 02:08:57;;;;;;;40.25;24.95;;;19.00;99.90;;;;;;5054900;28;20041;-67
2023/07/10 02:11:23;;;;;;;35.72;23.77;;;19.00;99.90;;;;;;5053226;28;20527;-68
2023/07/10 02:13:48;;;;;;;37.85;24.13;;;19.00;99.90;;;;;;5054969;28;20037;-67
2023/07/10 02:16:15;;;;;;;36.10;24.08;;;19.10;99.90;;;;;;5054981;28;20031;-67
2023/07/10 02:18:41;;;;;;;38.83;25.17;;;19.00;99.90;;;;;;5054603;28;20091;-67
2023/07/10 02:21:07;;;;;;;50.28;26.52;;;19.00;99.90;;;;;;5054318;28;20037;-67
2023/07/10 02:23:34;;;;;;;36.10;23.80;;;19.10;99.90;;;;;;5054995;28;20044;-67
2023/07/10 02:26:01;;;;;;;36.13;22.38;;;19.00;99.90;;;;;;5054905;28;20120;-67
2023/07/10 02:28:26;;;;;;;31.88;20.85;;;19.00;99.90;;;;;;5054425;28;20045;-67
2023/07/10 02:30:52;;;;;;;37.78;23.98;;;18.90;99.90;;;;;;5054279;28;20551;-67
2023/07/10 02:33:19;;;;;;;34.90;21.45;;;18.90;99.90;;;;;;5054511;28;20041;-68
2023/07/10 02:35:46;;;;;;;37.55;21.42;;;19.10;99.90;;;;;;5054441;28;20560;-67
2023/07/10 02:38:11;;;;;;;33.10;21.70;;;19.00;99.90;;;;;;5054422;28;20037;-67
2023/07/10 02:40:37;;;;;;;37.85;21.38;;;18.90;99.90;;;;;;5054224;28;20064;-67
2023/07/10 02:43:03;;;;;;;33.83;22.52;;;18.80;99.90;;;;;;5054573;28;20408;-67
2023/07/10 02:45:28;;;;;;;31.38;21.20;;;19.00;99.90;;;;;;5054293;28;20563;-68
2023/07/10 02:47:54;;;;;;;33.17;21.08;;;18.90;99.90;;;;;;5054064;28;20048;-67
2023/07/10 02:50:19;;;;;;;32.53;20.20;;;18.80;99.90;;;;;;5053748;28;20408;-67
2023/07/10 02:52:45;;;;;;;30.20;19.50;;;18.80;99.90;;;;;;5054267;28;20457;-67
2023/07/10 02:55:11;;;;;;;31.38;21.35;;;18.80;99.90;;;;;;5054273;28;20085;-67
2023/07/10 02:57:36;;;;;;;29.73;19.35;;;18.80;99.90;;;;;;5053977;28;20063;-67
2023/07/10 03:00:03;;;;;;;27.35;19.15;;;18.80;99.90;;;;;;5054054;28;20032;-67
2023/07/10 03:02:29;;;;;;;27.25;19.75;;;18.80;99.90;;;;;;5053803;28;20107;-67
2023/07/10 03:04:54;;;;;;;23.83;17.60;;;18.70;99.90;;;;;;5053729;28;20691;-67
2023/07/10 03:07:20;;;;;;;24.05;18.83;;;18.80;99.90;;;;;;5053221;28;20393;-67
2023/07/10 03:09:46;;;;;;;22.90;15.75;;;18.80;99.90;;;;;;5053262;28;20413;-67
2023/07/10 03:12:11;;;;;;;22.77;16.17;;;18.80;99.90;;;;;;5053228;28;20040;-67
2023/07/10 03:14:37;;;;;;;23.65;15.38;;;18.80;99.90;;;;;;5053576;28;20087;-68
2023/07/10 03:17:04;;;;;;;21.92;15.40;;;18.80;99.90;;;;;;5053917;28;20036;-67
2023/07/10 03:19:32;;;;;;;24.50;16.33;;;18.90;99.90;;;;;;5053385;28;20041;-67
2023/07/10 03:21:58;;;;;;;26.38;17.10;;;18.80;99.90;;;;;;5053500;28;20346;-67
2023/07/10 03:24:24;;;;;;;21.73;15.85;;;18.90;99.90;;;;;;5053807;28;20037;-67
2023/07/10 03:26:49;;;;;;;23.60;15.98;;;18.90;99.90;;;;;;5053718;28;20064;-67
2023/07/10 03:29:16;;;;;;;24.38;16.00;;;18.70;99.90;;;;;;5053242;28;20461;-67
2023/07/10 03:31:43;;;;;;;22.70;15.82;;;18.70;99.90;;;;;;5052926;28;20390;-67
2023/07/10 03:34:11;;;;;;;23.15;14.65;;;18.70;99.90;;;;;;5053048;28;20041;-67
2023/07/10 03:36:37;;;;;;;23.38;16.23;;;18.80;99.90;;;;;;5053594;28;20041;-67
2023/07/10 03:39:03;;;;;;;22.55;16.05;;;18.70;99.90;;;;;;5053162;28;20523;-67
2023/07/10 03:41:28;;;;;;;32.53;16.80;;;18.70;99.90;;;;;;5052964;28;20048;-67
2023/07/10 03:43:55;;;;;;;23.08;16.80;;;18.70;99.90;;;;;;5053233;28;20124;-67
2023/07/10 03:46:20;;;;;;;23.80;16.95;;;18.80;99.90;;;;;;5053165;28;20045;-68
2023/07/10 03:48:47;;;;;;;21.60;13.82;;;18.70;99.90;;;;;;5052777;28;20461;-67
2023/07/10 03:51:14;;;;;;;20.13;15.98;;;18.60;99.90;;;;;;5077259;22;20131;-71
2023/07/10 03:53:40;;;;;;;21.23;15.85;;;18.60;99.90;;;;;;5052799;28;20044;-71
2023/07/10 03:56:06;;;;;;;20.75;15.30;;;18.70;99.90;;;;;;5052635;28;20041;-71
2023/07/10 03:58:34;;;;;;;22.10;14.88;;;18.70;99.90;;;;;;5052228;28;20488;-71
2023/07/10 04:01:00;;;;;;;21.38;13.93;;;18.70;99.90;;;;;;5052228;28;20465;-71
2023/07/10 04:03:28;;;;;;;21.63;12.95;;;18.70;99.90;;;;;;5042471;28;20045;-71
2023/07/10 04:05:57;;;;;;;21.58;13.10;;;18.70;99.90;;;;;;5052570;28;20029;-71
2023/07/10 04:08:27;;;;;;;19.65;13.40;;;18.80;99.90;;;;;;5052459;28;20421;-72
2023/07/10 04:10:54;;;;;;;19.23;13.63;;;18.70;99.90;;;;;;5050969;28;20420;-73
2023/07/10 04:13:21;;;;;;;19.95;13.65;;;18.70;99.90;;;;;;5052556;28;20037;-73
2023/07/10 04:16:01;;;;;;;18.25;13.38;;;18.80;99.90;;;;;;5052558;28;20040;-73
2023/07/10 04:18:29;;;;;;;19.98;14.07;;;18.80;99.90;;;;;;5051069;28;20044;-73
2023/07/10 04:20:55;;;;;;;17.52;13.10;;;18.90;99.90;;;;;;5051680;28;20413;-73
2023/07/10 04:23:20;;;;;;;22.10;14.07;;;18.90;99.90;;;;;;5052025;28;20040;-73
2023/07/10 04:25:46;;;;;;;20.08;14.05;;;18.90;99.90;;;;;;5051119;28;20040;-73
2023/07/10 04:28:12;;;;;;;25.95;15.75;;;18.90;99.90;;;;;;5052116;28;20036;-73
2023/07/10 04:30:37;;;;;;;19.88;13.90;;;18.80;99.90;;;;;;5050761;28;20037;-73
2023/07/10 04:33:03;;;;;;;22.05;13.82;;;18.80;99.90;;;;;;5052547;28;20036;-73
2023/07/10 04:35:28;;;;;;;19.60;13.75;;;18.80;99.90;;;;;;5052373;28;20436;-73
2023/07/10 04:37:54;;;;;;;20.48;15.50;;;18.90;99.90;;;;;;5052026;28;20465;-72
2023/07/10 04:40:20;;;;;;;17.58;14.20;;;18.80;99.90;;;;;;5051963;28;20517;-71
2023/07/10 04:42:45;;;;;;;20.08;14.75;;;18.80;99.90;;;;;;5051578;28;20046;-71
2023/07/10 04:45:11;;;;;;;22.33;14.38;;;18.70;99.90;;;;;;5051605;28;20124;-71
2023/07/10 04:47:36;;;;;;;20.42;15.50;;;18.90;99.90;;;;;;5051845;28;20043;-71
2023/07/10 04:50:02;;;;;;;23.00;16.17;;;18.80;99.90;;;;;;5050667;28;20048;-71
2023/07/10 04:52:27;;;;;;;20.42;14.52;;;18.90;99.90;;;;;;5050317;28;20167;-71
2023/07/10 04:54:53;;;;;;;18.80;14.10;;;18.90;99.90;;;;;;5051777;28;20073;-71
2023/07/10 04:57:18;;;;;;;18.63;13.30;;;18.80;99.90;;;;;;5050173;28;20044;-71
2023/07/10 04:59:45;;;;;;;23.63;15.45;;;18.90;99.90;;;;;;5051735;28;20082;-71
2023/07/10 05:02:11;;;;;;;18.80;14.18;;;18.90;99.90;;;;;;5049839;28;20044;-71
2023/07/10 05:04:36;;;;;;;17.88;14.35;;;18.80;99.90;;;;;;5051701;28;20163;-71
2023/07/10 05:07:03;;;;;;;18.50;12.75;;;18.80;99.90;;;;;;5051609;28;20101;-71
2023/07/10 05:09:29;;;;;;;18.70;13.25;;;18.80;99.90;;;;;;5050033;28;20059;-71
2023/07/10 05:11:55;;;;;;;20.67;14.73;;;18.90;99.90;;;;;;5049726;28;20551;-71
2023/07/10 05:14:21;;;;;;;20.20;14.13;;;18.80;99.90;;;;;;5051611;28;20164;-71
2023/07/10 05:16:46;;;;;;;20.85;12.55;;;18.80;99.90;;;;;;5051586;28;20032;-71
2023/07/10 05:19:12;;;;;;;20.83;12.90;;;18.90;99.90;;;;;;5049767;28;20489;-71
2023/07/10 05:21:38;;;;;;;15.52;11.73;;;18.70;99.90;;;;;;5051017;28;20171;-71
2023/07/10 05:24:04;;;;;;;16.35;11.75;;;18.70;99.90;;;;;;5049898;28;20562;-70
2023/07/10 05:26:29;;;;;;;18.02;11.00;;;18.70;99.90;;;;;;5051003;28;20044;-70
2023/07/10 05:28:55;;;;;;;15.48;11.30;;;18.70;99.90;;;;;;5051141;28;20049;-70
2023/07/10 05:31:20;;;;;;;21.50;11.30;;;18.60;99.90;;;;;;5050768;28;20068;-70
2023/07/10 05:33:47;;;;;;;16.35;11.52;;;18.80;99.90;;;;;;5050761;28;20049;-70
2023/07/10 05:36:13;;;;;;;14.77;10.73;;;18.80;99.90;;;;;;5051175;28;20124;-70
2023/07/10 05:38:39;;;;;;;14.05;10.68;;;18.80;99.90;;;;;;5049402;28;20040;-70
2023/07/10 05:41:06;;;;;;;14.48;10.88;;;18.90;99.90;;;;;;5050414;28;20036;-70
2023/07/10 05:43:32;;;;;;;15.48;11.23;;;18.90;99.90;;;;;;5051344;28;20036;-70
2023/07/10 05:45:58;;;;;;;14.70;9.35;;;18.80;99.90;;;;;;5048759;28;20084;-70
2023/07/10 05:48:25;;;;;;;14.70;10.15;;;18.80;99.90;;;;;;5050902;28;20048;-72
2023/07/10 05:50:51;;;;;;;13.05;9.02;;;18.80;99.90;;;;;;5046673;28;20041;-70
2023/07/10 05:53:17;;;;;;;12.02;8.30;;;18.80;99.90;;;;;;5039788;28;20041;-71
2023/07/10 05:55:48;;;;;;;12.30;8.00;;;18.90;99.90;;;;;;5049281;28;20040;-70
2023/07/10 05:58:14;;;;;;;10.98;8.23;;;18.90;99.90;;;;;;5050888;28;20037;-70
2023/07/10 06:00:41;;;;;;;12.00;8.80;;;18.90;99.90;;;;;;5049752;28;20045;-70
2023/07/10 06:03:07;;;;;;;10.10;8.02;;;18.90;99.90;;;;;;5051231;28;20041;-70
2023/07/10 06:05:32;;;;;;;10.60;7.43;;;19.00;99.90;;;;;;5049948;28;20397;-70
2023/07/10 06:07:58;;;;;;;8.48;6.80;;;19.00;99.90;;;;;;5049518;28;20072;-70
2023/07/10 06:10:23;;;;;;;8.98;6.75;;;19.00;99.90;;;;;;5050388;28;20111;-70
2023/07/10 06:12:49;;;;;;;12.35;6.47;;;19.00;99.90;;;;;;5050156;28;20037;-70
2023/07/10 06:15:14;;;;;;;10.73;6.30;;;18.90;99.90;;;;;;5051206;28;20190;-70
2023/07/10 06:17:40;;;;;;;8.32;5.68;;;19.00;99.90;;;;;;5049578;28;20511;-70
2023/07/10 06:20:06;;;;;;;11.35;6.43;;;18.90;99.90;;;;;;5051162;28;20037;-70
2023/07/10 06:22:32;;;;;;;11.05;5.38;;;19.00;99.90;;;;;;5050561;28;20048;-70
2023/07/10 06:24:57;;;;;;;7.22;5.00;;;19.00;99.90;;;;;;5050838;28;20044;-71
2023/07/10 06:27:23;;;;;;;8.43;4.97;;;18.90;99.90;;;;;;5050629;28;20045;-71
2023/07/10 06:29:51;;;;;;;8.55;4.90;;;18.90;99.90;;;;;;5050972;28;20083;-70
2023/07/10 06:32:17;;;;;;;9.88;4.97;;;19.20;99.90;;;;;;5050570;28;20041;-70
2023/07/10 06:34:43;;;;;;;6.97;5.45;;;19.30;99.90;;;;;;5050896;28;20052;-70
2023/07/10 06:37:08;;;;;;;10.60;6.00;;;19.30;99.90;;;;;;5050907;28;20041;-72
2023/07/10 06:39:34;;;;;;;7.75;4.22;;;19.40;99.90;;;;;;5050506;28;20087;-73
2023/07/10 06:41:59;;;;;;;8.93;5.53;;;19.40;99.90;;;;;;5050590;28;20420;-70
2023/07/10 06:44:25;;;;;;;9.60;4.90;;;19.50;99.90;;;;;;5051015;28;20092;-70
2023/07/10 06:46:51;;;;;;;8.35;4.68;;;19.60;99.90;;;;;;5054560;28;20064;-70
2023/07/10 06:49:16;;;;;;;10.80;5.07;;;19.70;99.90;;;;;;5054169;28;20041;-70
2023/07/10 06:51:42;;;;;;;6.03;4.45;;;19.80;99.90;;;;;;5053910;28;20442;-70
2023/07/10 06:54:08;;;;;;;7.45;4.53;;;19.90;99.90;;;;;;5054073;28;20039;-70
2023/07/10 06:56:34;;;;;;;7.00;4.85;;;19.90;99.90;;;;;;5054304;28;20513;-70
2023/07/10 06:58:59;;;;;;;10.73;4.70;;;20.00;99.90;;;;;;5054078;28;20063;-70
2023/07/10 07:01:25;;;;;;;10.10;4.07;;;20.20;99.90;;;;;;5053849;28;20136;-70
2023/07/10 07:03:50;;;;;;;9.50;3.90;;;20.60;99.90;;;;;;5054137;28;20037;-71
2023/07/10 07:06:16;;;;;;;8.18;3.60;;;21.00;99.90;;;;;;5054167;28;20044;-70
2023/07/10 07:08:46;;;;;;;6.13;3.33;;;21.20;99.90;;;;;;5053616;28;20642;-70
2023/07/10 07:11:12;;;;;;;11.45;3.40;;;21.70;99.90;;;;;;5053642;28;20462;-70
2023/07/10 07:13:37;;;;;;;6.75;3.40;;;21.80;99.90;;;;;;5053741;28;20045;-70
2023/07/10 07:16:04;;;;;;;6.70;2.90;;;22.00;99.90;;;;;;5053964;28;20040;-72
2023/07/10 07:18:33;;;;;;;5.60;2.78;;;22.50;99.90;;;;;;5053588;28;20033;-72
2023/07/10 07:20:59;;;;;;;5.75;2.42;;;22.40;99.90;;;;;;5052123;28;20056;-70
2023/07/10 07:23:26;;;;;;;7.95;2.78;;;22.50;99.90;;;;;;5054134;28;20033;-70
2023/07/10 07:25:56;;;;;;;5.30;2.22;;;22.50;99.90;;;;;;5052756;28;20299;-71
2023/07/10 07:28:25;;;;;;;6.28;2.42;;;22.80;99.90;;;;;;5052726;28;20512;-71
2023/07/10 07:30:54;;;;;;;10.10;2.38;;;23.10;99.90;;;;;;5052268;28;20128;-70
2023/07/10 07:33:22;;;;;;;8.30;2.65;;;23.10;99.90;;;;;;5036571;28;20404;-70
2023/07/10 07:35:50;;;;;;;9.18;3.00;;;23.20;99.90;;;;;;5019589;28;20064;-70
2023/07/10 07:38:16;;;;;;;8.13;3.13;;;23.50;99.90;;;;;;5052407;28;20052;-70
2023/07/10 07:40:42;;;;;;;8.57;2.75;;;23.80;99.90;;;;;;5035392;28;20048;-71
2023/07/10 07:43:07;;;;;;;6.75;2.33;;;24.10;99.90;;;;;;5052560;28;20063;-71
2023/07/10 07:45:39;;;;;;;6.88;2.65;;;24.40;99.90;;;;;;5053636;28;20091;-70
2023/07/10 07:48:05;;;;;;;6.47;2.42;;;24.50;99.90;;;;;;5051917;28;20041;-72
2023/07/10 07:50:31;;;;;;;10.80;2.53;;;24.30;99.90;;;;;;5051737;28;20087;-71
2023/07/10 07:52:59;;;;;;;7.13;2.40;;;24.60;99.90;;;;;;5053233;28;20033;-71
2023/07/10 07:55:25;;;;;;;8.57;2.45;;;24.40;99.90;;;;;;5051560;28;20044;-72
2023/07/10 07:57:50;;;;;;;5.43;2.72;;;24.60;99.90;;;;;;5052892;28;20037;-71
2023/07/10 08:00:16;;;;;;;22.27;4.75;;;24.90;99.90;;;;;;5052894;28;20037;-71
2023/07/10 08:02:42;;;;;;;14.25;3.45;;;24.80;99.90;;;;;;5051678;28;20040;-71
2023/07/10 08:05:07;;;;;;;8.82;2.58;;;24.60;99.90;;;;;;5052888;28;20516;-71
2023/07/10 08:07:33;;;;;;;10.15;2.70;;;24.60;99.90;;;;;;5052491;28;20515;-71
2023/07/10 08:09:59;;;;;;;16.73;2.90;;;24.60;99.90;;;;;;5052591;28;20041;-71
2023/07/10 08:12:24;;;;;;;5.55;2.53;;;24.80;99.90;;;;;;5052280;28;20124;-71
2023/07/10 08:14:50;;;;;;;4.30;1.85;;;24.70;99.90;;;;;;5052844;28;20041;-72
2023/07/10 08:17:15;;;;;;;5.43;1.88;;;24.60;99.90;;;;;;5052447;28;20049;-71
2023/07/10 08:19:41;;;;;;;4.82;1.88;;;24.50;99.90;;;;;;5052602;28;20048;-71
2023/07/10 08:22:06;;;;;;;5.30;2.33;;;24.30;99.90;;;;;;5050882;28;20068;-72
2023/07/10 08:24:32;;;;;;;4.97;1.65;;;24.50;99.90;;;;;;5051397;28;20064;-72
2023/07/10 08:26:57;;;;;;;9.45;2.60;;;24.70;99.90;;;;;;5051512;28;20118;-72
2023/07/10 08:29:29;;;;;;;11.70;2.83;;;24.40;99.90;;;;;;5052215;28;20565;-71
2023/07/10 08:31:56;;;;;;;9.73;2.60;;;24.50;99.90;;;;;;5051994;28;20037;-71
2023/07/10 08:34:23;;;;;;;8.02;2.30;;;24.50;99.90;;;;;;5051278;28;20048;-72
2023/07/10 08:36:52;;;;;;;9.00;2.55;;;24.50;99.90;;;;;;5052378;28;20489;-71
2023/07/10 08:39:22;;;;;;;5.63;1.65;;;24.50;99.90;;;;;;5052182;28;20041;-71
2023/07/10 08:41:58;;;;;;;7.20;1.77;;;24.40;99.90;;;;;;5052018;28;20037;-71
2023/07/10 08:44:30;;;;;;;7.82;2.15;;;24.00;99.90;;;;;;5052074;28;20519;-72
2023/07/10 08:46:57;;;;;;;7.55;1.52;;;23.80;99.90;;;;;;5052284;28;20059;-71
2023/07/10 08:49:34;;;;;;;4.95;1.58;;;24.10;99.90;;;;;;5051753;28;20569;-71
2023/07/10 08:52:10;;;;;;;8.25;1.88;;;24.20;99.90;;;;;;5051622;28;20048;-71
2023/07/10 08:54:36;;;;;;;8.02;2.13;;;24.60;99.90;;;;;;5051961;28;20121;-72
2023/07/10 08:57:33;;;;;;;5.38;1.88;;;24.70;99.90;;;;;;5051945;28;20072;-72
2023/07/10 09:00:09;;;;;;;8.98;2.40;;;24.70;99.90;;;;;;5051947;28;20464;-72
2023/07/10 09:02:40;;;;;;;14.25;2.38;;;24.60;99.90;;;;;;5050214;28;20080;-71
2023/07/10 09:05:13;;;;;;;16.35;2.78;;;24.90;99.90;;;;;;5051854;28;20112;-72
2023/07/10 09:07:44;;;;;;;10.98;2.55;;;24.80;99.90;;;;;;5051172;28;20045;-71
2023/07/10 09:10:19;;;;;;;8.25;2.05;;;25.00;99.90;;;;;;5051948;28;20045;-71
2023/07/10 09:12:50;;;;;;;5.88;2.03;;;24.60;99.90;;;;;;5051672;28;20044;-71
2023/07/10 09:15:21;;;;;;;7.30;1.92;;;24.60;99.90;;;;;;5033918;28;20514;-71
2023/07/10 09:17:57;;;;;;;21.20;3.13;;;24.70;99.90;;;;;;5033718;28;20075;-71
2023/07/10 09:20:24;;;;;;;10.90;2.90;;;24.90;99.90;;;;;;5051435;28;20059;-71
2023/07/10 09:23:02;;;;;;;14.18;2.30;;;25.10;99.90;;;;;;5051541;28;20064;-71
2023/07/10 09:25:28;;;;;;;8.15;2.58;;;25.30;99.90;;;;;;5050581;28;20060;-71
2023/07/10 09:27:56;;;;;;;9.10;2.78;;;25.30;99.90;;;;;;5051253;28;20077;-71
2023/07/10 09:30:46;;;;;;;5.00;2.08;;;25.40;99.90;;;;;;5051268;28;20041;-71
2023/07/10 09:33:11;;;;;;;4.40;1.92;;;25.00;99.90;;;;;;5033608;28;20460;-71
2023/07/10 09:35:41;;;;;;;5.97;2.08;;;25.20;99.90;;;;;;5051367;28;20128;-71
2023/07/10 09:38:11;;;;;;;7.60;1.90;;;25.10;99.90;;;;;;5051116;28;20646;-71
2023/07/10 09:40:55;;;;;;;6.20;1.98;;;25.30;99.90;;;;;;5049611;28;20421;-71
2023/07/10 09:43:24;;;;;;;6.50;1.98;;;25.40;99.90;;;;;;5050137;28;20041;-71
2023/07/10 09:45:52;;;;;;;7.65;2.20;;;25.30;99.90;;;;;;5049773;28;20045;-71
2023/07/10 09:48:33;;;;;;;23.73;5.13;;;25.20;99.90;;;;;;5051051;28;20052;-71
2023/07/10 09:51:05;;;;;;;15.27;2.58;;;25.20;99.90;;;;;;5075569;22;20037;-70
2023/07/10 09:53:46;;;;;;;6.55;2.00;;;25.20;99.90;;;;;;5050922;28;20055;-69
2023/07/10 09:56:29;;;;;;;7.25;1.80;;;25.20;99.90;;;;;;5050956;28;20037;-69
2023/07/10 09:58:55;;;;;;;;;;;25.40;99.90;;;;;;5051307;28;20455;-70
2023/07/10 10:01:31;;;;;;;11.35;3.42;;;25.30;99.90;;;;;;5050692;28;19916;-70
2023/07/10 10:03:57;;;;;;;10.27;2.10;;;25.20;99.90;;;;;;5051101;28;20524;-69
2023/07/10 10:06:28;;;;;;;7.95;1.80;;;25.20;99.90;;;;;;5051306;28;20044;-70
2023/07/10 10:08:54;;;;;;;12.32;2.83;;;24.90;99.90;;;;;;5050959;28;20045;-70
2023/07/10 10:11:35;;;;;;;11.55;2.35;;;24.90;99.90;;;;;;5050699;28;20079;-70
2023/07/10 10:14:06;;;;;;;8.50;2.00;;;25.00;99.90;;;;;;5030953;28;20131;-69
2023/07/10 10:16:47;;;;;;;13.38;2.50;;;25.20;99.90;;;;;;5034951;28;20040;-68
2023/07/10 10:19:27;;;;;;;5.88;2.22;;;25.40;99.90;;;;;;5045507;28;20119;-68
2023/07/10 10:21:53;;;;;;;4.43;2.05;;;25.50;99.90;;;;;;5048012;28;20107;-68
2023/07/10 10:24:19;;;;;;;9.90;2.40;;;25.70;99.90;;;;;;5054614;28;20045;-68
2023/07/10 10:26:55;;;;;;;7.13;2.20;;;25.70;99.90;;;;;;5053286;28;20036;-68
2023/07/10 10:29:34;;;;;;;12.35;3.10;;;25.80;99.20;;;;;;5048003;28;20420;-68
2023/07/10 10:32:15;;;;;;;8.75;2.13;;;25.80;99.90;;;;;;5047913;28;20436;-68
2023/07/10 10:34:41;;;;;;;7.38;2.10;;;25.60;99.80;;;;;;5053322;28;20036;-68
2023/07/10 10:37:31;;;;;;;6.88;1.90;;;25.50;99.90;;;;;;5048745;28;20033;-68
2023/07/10 10:40:19;;;;;;;6.75;2.33;;;25.40;99.30;;;;;;5050417;28;20508;-68
2023/07/10 10:42:52;;;;;;;4.60;1.42;;;25.40;99.30;;;;;;5039230;28;20033;-68
2023/07/10 10:45:48;;;;;;;5.60;2.33;;;25.40;98.80;;;;;;5049554;28;20470;-68
2023/07/10 10:48:24;;;;;;;10.32;2.13;;;25.40;99.90;;;;;;5050352;28;20120;-68
2023/07/10 10:51:29;;;;;;;5.90;1.70;;;25.10;99.10;;;;;;5040295;28;20505;-68
2023/07/10 10:54:16;;;;;;;7.38;2.20;;;25.20;99.90;;;;;;5043033;28;20052;-68
2023/07/10 10:56:55;;;;;;;6.03;1.88;;;25.30;99.90;;;;;;5053085;28;20085;-68
2023/07/10 10:59:35;;;;;;;7.60;2.03;;;25.20;99.90;;;;;;5049388;28;20033;-68
2023/07/10 11:02:19;;;;;;;6.93;2.15;;;25.40;99.90;;;;;;5053874;28;20048;-68
2023/07/10 11:05:26;;;;;;;10.77;2.13;;;25.40;99.90;;;;;;5046846;28;20037;-68
2023/07/10 11:07:55;;;;;;;6.90;1.95;;;25.40;99.90;;;;;;5050887;28;20048;-68
2023/07/10 11:10:41;;;;;;;5.22;1.95;;;25.40;99.90;;;;;;5034243;28;20068;-68
2023/07/10 11:13:31;;;;;;;7.30;2.10;;;25.40;99.30;;;;;;5054522;28;20451;-68
2023/07/10 11:15:59;;;;;;;8.02;2.10;;;25.20;98.80;;;;;;5049506;28;20076;-68
2023/07/10 11:18:25;;;;;;;7.93;2.03;;;25.30;99.90;;;;;;5053285;28;20492;-68
2023/07/10 11:20:50;;;;;;;6.15;1.80;;;25.20;99.70;;;;;;5049250;28;20073;-68
2023/07/10 11:23:44;;;;;;;5.45;2.10;;;24.80;99.30;;;;;;5049573;28;20493;-68
2023/07/10 11:26:14;;;;;;;;;;;24.60;98.70;;;;;;5049576;28;20032;-68
2023/07/10 11:29:00;;;;;;;18.65;3.17;;;24.80;99.90;;;;;;5049694;28;19923;-68
2023/07/10 11:31:31;;;;;;;7.72;2.08;;;25.00;99.90;;;;;;5050309;28;20036;-68
2023/07/10 11:34:19;;;;;;;9.00;2.38;;;25.20;99.90;;;;;;5048338;28;20042;-70
2023/07/10 11:36:46;;;;;;;10.20;1.88;;;25.30;99.90;;;;;;5043340;28;20036;-69
2023/07/10 11:39:18;;;;;;;7.43;1.88;;;25.50;99.90;;;;;;5051662;28;20090;-69
2023/07/10 11:41:44;;;;;;;6.13;1.90;;;25.40;99.90;;;;;;5046249;28;20032;-69
2023/07/10 11:44:28;;;;;;;7.30;1.58;;;25.20;99.90;;;;;;5053225;28;20110;-69
2023/07/10 11:46:57;;;;;;;7.53;2.33;;;24.90;98.80;;;;;;5044090;28;20106;-69
2023/07/10 11:49:24;;;;;;;6.28;1.38;;;24.90;99.90;;;;;;5052140;28;20056;-69
2023/07/10 11:52:27;;;;;;;9.27;2.15;;;25.00;99.90;;;;;;5039801;28;20045;-69
2023/07/10 11:54:52;;;;;;;8.50;1.88;;;24.90;99.90;;;;;;4961683;28;20458;-69
2023/07/10 11:57:23;;;;;;;4.90;1.98;;;25.00;99.00;;;;;;5036346;28;20052;-69
2023/07/10 11:59:57;;;;;;;9.43;1.90;;;24.70;98.20;;;;;;5043591;28;20044;-69
2023/07/10 12:02:25;;;;;;;5.30;1.17;;;24.60;98.20;;;;;;5052248;28;20158;-69
2023/07/10 12:04:50;;;;;;;5.70;2.05;;;24.70;97.90;;;;;;5040441;28;20065;-69
2023/07/10 12:07:16;;;;;;;5.28;2.00;;;24.80;99.20;;;;;;5035020;28;20044;-69
2023/07/10 12:09:42;;;;;;;6.25;1.90;;;24.60;98.60;;;;;;5051147;28;20420;-69
2023/07/10 12:12:10;;;;;;;7.90;1.98;;;24.30;98.00;;;;;;5028129;28;20557;-69
2023/07/10 12:14:36;;;;;;;7.40;2.35;;;24.40;97.50;;;;;;5048537;28;20029;-69
2023/07/10 12:17:06;;;;;;;5.25;1.33;;;24.40;97.50;;;;;;5044691;28;20140;-69
2023/07/10 12:19:36;;;;;;;4.05;1.90;;;24.40;97.80;;;;;;5033040;28;20048;-68
2023/07/10 12:22:13;;;;;;;7.68;1.67;;;24.50;98.20;;;;;;5048627;28;20040;-69
2023/07/10 12:24:49;;;;;;;7.03;1.92;;;24.50;99.00;;;;;;5049271;28;20041;-69
2023/07/10 12:27:15;;;;;;;6.65;2.03;;;24.60;97.60;;;;;;5046628;28;20037;-69
2023/07/10 12:29:52;;;;;;;9.45;2.25;;;24.60;97.60;;;;;;5049188;28;20120;-69
2023/07/10 12:32:18;;;;;;;4.72;1.40;;;24.60;96.40;;;;;;5045966;28;20056;-69
2023/07/10 12:34:45;;;;;;;3.42;1.35;;;24.40;97.50;;;;;;5046099;28;20041;-69
2023/07/10 12:37:14;;;;;;;5.35;1.77;;;24.60;97.80;;;;;;5042365;28;20067;-69
2023/07/10 12:39:42;;;;;;;4.25;1.70;;;24.70;98.20;;;;;;5041013;28;20052;-69
2023/07/10 12:42:30;;;;;;;4.10;1.13;;;24.80;96.90;;;;;;5039042;28;20033;-69
2023/07/10 12:44:55;;;;;;;3.95;1.63;;;24.90;94.30;;;;;;5047077;28;20041;-70
2023/07/10 12:47:21;;;;;;;4.88;1.13;;;24.90;94.30;;;;;;5051391;28;20037;-70